createdAt,value
2017-06-02T00:00:25.464Z,1020.38
2017-06-02T00:01:06.002Z,1020.39
2017-06-02T00:01:46.502Z,1020.41
2017-06-02T00:02:26.995Z,1020.39
2017-06-02T00:03:07.469Z,1020.4
2017-06-02T00:03:47.957Z,1020.4
2017-06-02T00:04:28.460Z,1020.38
2017-06-02T00:05:08.991Z,1020.39
2017-06-02T00:05:49.475Z,1020.37
2017-06-02T00:06:29.988Z,1020.39
2017-06-02T00:07:10.503Z,1020.37
2017-06-02T00:07:50.963Z,1020.35
2017-06-02T00:08:31.472Z,1020.38
2017-06-02T00:09:11.941Z,1020.37
2017-06-02T00:09:52.454Z,1020.31
2017-06-02T00:10:32.932Z,1020.33
2017-06-02T00:11:13.417Z,1020.35
2017-06-02T00:11:53.891Z,1020.31
2017-06-02T00:12:34.377Z,1020.3
2017-06-02T00:13:14.935Z,1020.27
2017-06-02T00:13:55.457Z,1020.3
2017-06-02T00:14:35.942Z,1020.25
2017-06-02T00:15:16.397Z,1020.29
2017-06-02T00:15:56.882Z,1020.25
2017-06-02T00:16:37.375Z,1020.26
2017-06-02T00:18:35.488Z,1020.25
2017-06-02T00:19:15.974Z,1020.26
2017-06-02T00:19:56.453Z,1020.25
2017-06-02T00:20:36.970Z,1020.26
2017-06-02T00:21:17.440Z,1020.24
2017-06-02T00:21:57.937Z,1020.27
2017-06-02T00:22:38.421Z,1020.3
2017-06-02T00:23:18.929Z,1020.28
2017-06-02T00:23:59.416Z,1020.3
2017-06-02T00:24:39.895Z,1020.26
2017-06-02T00:25:20.387Z,1020.28
2017-06-02T00:26:00.888Z,1020.28
2017-06-02T00:26:41.384Z,1020.28
2017-06-02T00:27:21.866Z,1020.22
2017-06-02T00:28:02.332Z,1020.26
2017-06-02T00:28:42.802Z,1020.27
2017-06-02T00:29:23.309Z,1020.28
2017-06-02T00:30:03.782Z,1020.31
2017-06-02T00:30:44.277Z,1020.32
2017-06-02T00:31:24.790Z,1020.3
2017-06-02T00:32:05.237Z,1020.37
2017-06-02T00:32:45.737Z,1020.32
2017-06-02T00:33:26.244Z,1020.31
2017-06-02T00:34:06.761Z,1020.31
2017-06-02T00:34:47.247Z,1020.31
2017-06-02T00:35:27.770Z,1020.32
2017-06-02T00:36:08.255Z,1020.35
2017-06-02T00:36:48.775Z,1020.38
2017-06-02T00:37:29.255Z,1020.32
2017-06-02T00:38:09.760Z,1020.29
2017-06-02T00:38:50.238Z,1020.35
2017-06-02T00:39:30.718Z,1020.33
2017-06-02T00:40:11.202Z,1020.31
2017-06-02T00:40:51.713Z,1020.35
2017-06-02T00:41:32.202Z,1020.32
2017-06-02T00:42:12.684Z,1020.32
2017-06-02T00:42:53.214Z,1020.32
2017-06-02T00:43:33.734Z,1020.29
2017-06-02T00:44:14.208Z,1020.31
2017-06-02T00:44:54.723Z,1020.29
2017-06-02T00:45:35.203Z,1020.33
2017-06-02T00:46:15.713Z,1020.3
2017-06-02T00:46:56.194Z,1020.33
2017-06-02T00:47:36.673Z,1020.34
2017-06-02T00:48:17.181Z,1020.36
2017-06-02T00:48:57.724Z,1020.37
2017-06-02T00:49:38.259Z,1020.39
2017-06-02T00:50:18.749Z,1020.33
2017-06-02T00:50:59.226Z,1020.36
2017-06-02T00:51:39.746Z,1020.35
2017-06-02T00:52:20.252Z,1020.34
2017-06-02T00:53:00.764Z,1020.37
2017-06-02T00:53:41.275Z,1020.35
2017-06-02T00:54:21.775Z,1020.33
2017-06-02T00:55:02.268Z,1020.32
2017-06-02T00:55:42.765Z,1020.3
2017-06-02T00:56:23.313Z,1020.32
2017-06-02T00:57:03.764Z,1020.28
2017-06-02T00:57:44.394Z,1020.22
2017-06-02T00:58:24.871Z,1020.25
2017-06-02T00:59:05.363Z,1020.18
2017-06-02T00:59:45.864Z,1020.24
2017-06-02T01:00:26.384Z,1020.27
2017-06-02T01:01:06.898Z,1020.28
2017-06-02T01:01:47.423Z,1020.29
2017-06-02T01:02:27.908Z,1020.26
2017-06-02T01:03:08.445Z,1020.26
2017-06-02T01:03:48.952Z,1020.19
2017-06-02T01:04:29.495Z,1020.22
2017-06-02T01:05:09.963Z,1020.23
2017-06-02T01:05:50.460Z,1020.2
2017-06-02T01:06:31.037Z,1020.2
2017-06-02T01:07:11.583Z,1020.26
2017-06-02T01:07:52.030Z,1020.26
2017-06-02T01:08:32.509Z,1020.28
2017-06-02T01:09:13.084Z,1020.23
2017-06-02T01:09:53.515Z,1020.26
2017-06-02T01:10:33.999Z,1020.22
2017-06-02T01:11:14.514Z,1020.25
2017-06-02T01:11:54.981Z,1020.21
2017-06-02T01:12:35.479Z,1020.15
2017-06-02T01:13:15.944Z,1020.14
2017-06-02T01:13:56.415Z,1020.15
2017-06-02T01:14:36.905Z,1020.19
2017-06-02T01:15:17.412Z,1020.18
2017-06-02T01:15:57.893Z,1020.16
2017-06-02T01:16:38.370Z,1020.17
2017-06-02T01:17:18.858Z,1020.17
2017-06-02T01:17:59.356Z,1020.16
2017-06-02T01:18:39.863Z,1020.2
2017-06-02T01:19:20.350Z,1020.15
2017-06-02T01:20:00.851Z,1020.13
2017-06-02T01:20:41.352Z,1020.14
2017-06-02T01:21:21.883Z,1020.13
2017-06-02T01:22:02.391Z,1020.14
2017-06-02T01:22:42.874Z,1020.13
2017-06-02T01:23:23.371Z,1020.14
2017-06-02T01:24:03.863Z,1020.09
2017-06-02T01:24:44.345Z,1020.11
2017-06-02T01:25:24.823Z,1020.12
2017-06-02T01:26:05.356Z,1020.07
2017-06-02T01:26:45.825Z,1020.09
2017-06-02T01:27:26.355Z,1020.07
2017-06-02T01:28:06.889Z,1020.07
2017-06-02T01:28:47.408Z,1020.04
2017-06-02T01:29:27.935Z,1020.05
2017-06-02T01:30:08.458Z,1020.06
2017-06-02T01:30:48.920Z,1020.05
2017-06-02T01:31:29.437Z,1020.06
2017-06-02T01:32:09.957Z,1020.08
2017-06-02T01:32:50.425Z,1020.07
2017-06-02T01:33:30.914Z,1020.07
2017-06-02T01:34:11.378Z,1020.06
2017-06-02T01:34:51.898Z,1020.08
2017-06-02T01:35:32.370Z,1020.08
2017-06-02T01:36:12.872Z,1020.07
2017-06-02T01:36:53.398Z,1020.05
2017-06-02T01:37:33.878Z,1020.02
2017-06-02T01:38:14.422Z,1020.03
2017-06-02T01:38:54.882Z,1020.03
2017-06-02T01:39:35.375Z,1019.98
2017-06-02T01:40:15.874Z,1019.98
2017-06-02T01:40:56.355Z,1019.94
2017-06-02T01:41:36.869Z,1019.93
2017-06-02T01:43:34.972Z,1019.94
2017-06-02T01:44:15.451Z,1019.92
2017-06-02T01:44:55.947Z,1019.91
2017-06-02T01:45:36.465Z,1019.92
2017-06-02T01:46:16.970Z,1019.86
2017-06-02T01:46:57.444Z,1019.85
2017-06-02T01:47:37.976Z,1019.85
2017-06-02T01:48:18.485Z,1019.8
2017-06-02T01:48:58.993Z,1019.83
2017-06-02T01:49:39.488Z,1019.83
2017-06-02T01:50:20.008Z,1019.8
2017-06-02T01:51:00.494Z,1019.85
2017-06-02T01:51:40.955Z,1019.77
2017-06-02T01:52:21.455Z,1019.83
2017-06-02T01:53:01.942Z,1019.85
2017-06-02T01:53:42.462Z,1019.81
2017-06-02T01:54:23.008Z,1019.81
2017-06-02T01:55:03.540Z,1019.84
2017-06-02T01:55:44.040Z,1019.8
2017-06-02T01:56:24.581Z,1019.83
2017-06-02T01:57:05.095Z,1019.84
2017-06-02T01:57:45.587Z,1019.84
2017-06-02T01:58:26.083Z,1019.81
2017-06-02T01:59:06.595Z,1019.83
2017-06-02T01:59:47.097Z,1019.75
2017-06-02T02:00:27.597Z,1019.76
2017-06-02T02:01:08.123Z,1019.76
2017-06-02T02:01:48.680Z,1019.74
2017-06-02T02:02:29.163Z,1019.76
2017-06-02T02:03:09.672Z,1019.75
2017-06-02T02:03:50.158Z,1019.72
2017-06-02T02:04:30.642Z,1019.73
2017-06-02T02:05:11.142Z,1019.73
2017-06-02T02:05:51.655Z,1019.75
2017-06-02T02:06:32.129Z,1019.74
2017-06-02T02:07:12.611Z,1019.69
2017-06-02T02:07:53.085Z,1019.7
2017-06-02T02:08:33.666Z,1019.68
2017-06-02T02:09:14.183Z,1019.67
2017-06-02T02:09:54.678Z,1019.68
2017-06-02T02:10:35.156Z,1019.63
2017-06-02T02:11:15.661Z,1019.63
2017-06-02T02:11:56.152Z,1019.65
2017-06-02T02:12:36.673Z,1019.61
2017-06-02T02:13:17.189Z,1019.62
2017-06-02T02:13:57.699Z,1019.66
2017-06-02T02:14:38.215Z,1019.64
2017-06-02T02:15:18.707Z,1019.63
2017-06-02T02:15:59.215Z,1019.66
2017-06-02T02:16:39.769Z,1019.63
2017-06-02T02:17:20.296Z,1019.65
2017-06-02T02:18:00.845Z,1019.66
2017-06-02T02:18:41.340Z,1019.67
2017-06-02T02:19:21.846Z,1019.65
2017-06-02T02:20:02.341Z,1019.62
2017-06-02T02:20:42.833Z,1019.64
2017-06-02T02:21:23.369Z,1019.64
2017-06-02T02:22:03.878Z,1019.66
2017-06-02T02:22:44.375Z,1019.62
2017-06-02T02:23:24.892Z,1019.59
2017-06-02T02:24:05.376Z,1019.58
2017-06-02T02:24:45.905Z,1019.61
2017-06-02T02:25:26.433Z,1019.55
2017-06-02T02:27:24.540Z,1019.55
2017-06-02T02:28:05.034Z,1019.56
2017-06-02T02:28:45.519Z,1019.54
2017-06-02T02:29:26.033Z,1019.57
2017-06-02T02:30:06.507Z,1019.56
2017-06-02T02:30:47.025Z,1019.6
2017-06-02T02:31:27.519Z,1019.57
2017-06-02T02:32:07.999Z,1019.62
2017-06-02T02:32:48.499Z,1019.57
2017-06-02T02:33:29.026Z,1019.55
2017-06-02T02:34:09.504Z,1019.59
2017-06-02T02:34:49.998Z,1019.56
2017-06-02T02:35:30.539Z,1019.57
2017-06-02T02:36:11.046Z,1019.54
2017-06-02T02:36:51.563Z,1019.53
2017-06-02T02:37:32.069Z,1019.55
2017-06-02T02:38:12.613Z,1019.56
2017-06-02T02:38:53.094Z,1019.52
2017-06-02T02:39:33.591Z,1019.52
2017-06-02T02:40:14.112Z,1019.51
2017-06-02T02:40:54.634Z,1019.49
2017-06-02T02:41:35.128Z,1019.48
2017-06-02T02:42:15.654Z,1019.48
2017-06-02T02:42:56.168Z,1019.5
2017-06-02T02:43:36.651Z,1019.49
2017-06-02T02:44:17.139Z,1019.49
2017-06-02T02:44:57.662Z,1019.47
2017-06-02T02:45:38.148Z,1019.44
2017-06-02T02:46:18.683Z,1019.45
2017-06-02T02:46:59.197Z,1019.49
2017-06-02T02:47:39.716Z,1019.47
2017-06-02T02:48:20.196Z,1019.44
2017-06-02T02:49:00.692Z,1019.48
2017-06-02T02:49:41.243Z,1019.45
2017-06-02T02:50:21.732Z,1019.48
2017-06-02T02:51:02.238Z,1019.47
2017-06-02T02:51:42.733Z,1019.45
2017-06-02T02:52:23.224Z,1019.52
2017-06-02T02:53:03.761Z,1019.46
2017-06-02T02:53:44.259Z,1019.48
2017-06-02T02:54:24.774Z,1019.49
2017-06-02T02:55:05.290Z,1019.48
2017-06-02T02:55:45.773Z,1019.48
2017-06-02T02:56:26.266Z,1019.5
2017-06-02T02:57:06.765Z,1019.48
2017-06-02T02:57:47.243Z,1019.46
2017-06-02T02:58:27.762Z,1019.49
2017-06-02T02:59:08.286Z,1019.48
2017-06-02T02:59:48.792Z,1019.48
2017-06-02T03:00:29.299Z,1019.48
2017-06-02T03:01:09.823Z,1019.48
2017-06-02T03:01:50.343Z,1019.46
2017-06-02T03:02:30.828Z,1019.44
2017-06-02T03:03:11.335Z,1019.46
2017-06-02T03:03:51.870Z,1019.46
2017-06-02T03:04:32.345Z,1019.46
2017-06-02T03:05:12.867Z,1019.47
2017-06-02T03:05:53.406Z,1019.44
2017-06-02T03:06:33.901Z,1019.46
2017-06-02T03:07:14.407Z,1019.48
2017-06-02T03:07:54.913Z,1019.49
2017-06-02T03:08:35.469Z,1019.51
2017-06-02T03:09:15.969Z,1019.51
2017-06-02T03:09:56.471Z,1019.54
2017-06-02T03:10:36.960Z,1019.52
2017-06-02T03:11:17.493Z,1019.56
2017-06-02T03:11:58.011Z,1019.55
2017-06-02T03:12:38.525Z,1019.55
2017-06-02T03:13:19.019Z,1019.54
2017-06-02T03:13:59.519Z,1019.53
2017-06-02T03:14:40.038Z,1019.55
2017-06-02T03:15:20.554Z,1019.54
2017-06-02T03:16:01.066Z,1019.55
2017-06-02T03:16:41.559Z,1019.54
2017-06-02T03:17:22.084Z,1019.55
2017-06-02T03:18:02.616Z,1019.54
2017-06-02T03:18:43.116Z,1019.56
2017-06-02T03:19:23.620Z,1019.55
2017-06-02T03:20:04.163Z,1019.53
2017-06-02T03:20:44.659Z,1019.53
2017-06-02T03:21:25.169Z,1019.5
2017-06-02T03:22:05.694Z,1019.54
2017-06-02T03:22:46.218Z,1019.54
2017-06-02T03:23:26.732Z,1019.52
2017-06-02T03:24:07.214Z,1019.5
2017-06-02T03:24:47.716Z,1019.54
2017-06-02T03:25:28.217Z,1019.52
2017-06-02T03:26:08.733Z,1019.47
2017-06-02T03:26:49.255Z,1019.51
2017-06-02T03:27:29.782Z,1019.53
2017-06-02T03:28:10.325Z,1019.52
2017-06-02T03:28:50.831Z,1019.49
2017-06-02T03:29:31.325Z,1019.53
2017-06-02T03:30:11.866Z,1019.48
2017-06-02T03:30:52.341Z,1019.5
2017-06-02T03:31:32.830Z,1019.51
2017-06-02T03:32:13.374Z,1019.51
2017-06-02T03:32:53.885Z,1019.5
2017-06-02T03:33:34.454Z,1019.5
2017-06-02T03:34:14.954Z,1019.54
2017-06-02T03:34:55.424Z,1019.51
2017-06-02T03:35:35.927Z,1019.52
2017-06-02T03:36:16.408Z,1019.49
2017-06-02T03:36:56.898Z,1019.51
2017-06-02T03:37:37.395Z,1019.52
2017-06-02T03:38:17.873Z,1019.5
2017-06-02T03:38:58.388Z,1019.52
2017-06-02T03:39:38.896Z,1019.5
2017-06-02T03:40:19.378Z,1019.49
2017-06-02T03:40:59.851Z,1019.49
2017-06-02T03:41:40.329Z,1019.49
2017-06-02T03:42:20.836Z,1019.5
2017-06-02T03:43:01.302Z,1019.53
2017-06-02T03:43:41.777Z,1019.57
2017-06-02T03:44:22.289Z,1019.59
2017-06-02T03:45:02.744Z,1019.55
2017-06-02T03:45:43.226Z,1019.6
2017-06-02T03:46:23.706Z,1019.58
2017-06-02T03:47:04.188Z,1019.61
2017-06-02T03:47:44.659Z,1019.62
2017-06-02T03:48:25.125Z,1019.6
2017-06-02T03:49:05.603Z,1019.62
2017-06-02T03:49:46.101Z,1019.6
2017-06-02T03:50:26.604Z,1019.6
2017-06-02T03:51:07.090Z,1019.58
2017-06-02T03:51:47.563Z,1019.6
2017-06-02T03:52:28.076Z,1019.57
2017-06-02T03:53:08.563Z,1019.6
2017-06-02T03:53:49.088Z,1019.59
2017-06-02T03:54:29.601Z,1019.58
2017-06-02T03:55:10.100Z,1019.59
2017-06-02T03:55:50.583Z,1019.63
2017-06-02T03:56:31.072Z,1019.65
2017-06-02T03:57:11.528Z,1019.6
2017-06-02T03:57:52.025Z,1019.58
2017-06-02T03:58:32.548Z,1019.61
2017-06-02T03:59:13.007Z,1019.58
2017-06-02T03:59:53.545Z,1019.59
2017-06-02T04:00:34.033Z,1019.55
2017-06-02T04:01:14.530Z,1019.57
2017-06-02T04:01:54.999Z,1019.54
2017-06-02T04:02:35.480Z,1019.56
2017-06-02T04:03:15.982Z,1019.58
2017-06-02T04:03:56.435Z,1019.54
2017-06-02T04:04:36.936Z,1019.52
2017-06-02T04:05:17.429Z,1019.54
2017-06-02T04:05:57.893Z,1019.49
2017-06-02T04:06:38.375Z,1019.5
2017-06-02T04:07:18.861Z,1019.54
2017-06-02T04:07:59.361Z,1019.51
2017-06-02T04:08:39.845Z,1019.5
2017-06-02T04:09:20.314Z,1019.55
2017-06-02T04:10:00.823Z,1019.55
2017-06-02T04:10:41.301Z,1019.55
2017-06-02T04:11:21.770Z,1019.55
2017-06-02T04:12:02.277Z,1019.56
2017-06-02T04:12:42.805Z,1019.58
2017-06-02T04:13:23.248Z,1019.54
2017-06-02T04:14:03.781Z,1019.53
2017-06-02T04:14:44.266Z,1019.59
2017-06-02T04:15:24.767Z,1019.6
2017-06-02T04:16:05.359Z,1019.55
2017-06-02T04:16:45.842Z,1019.58
2017-06-02T04:17:26.343Z,1019.57
2017-06-02T04:18:06.835Z,1019.58
2017-06-02T04:18:47.419Z,1019.57
2017-06-02T04:19:27.964Z,1019.59
2017-06-02T04:20:08.562Z,1019.54
2017-06-02T04:20:49.048Z,1019.56
2017-06-02T04:21:29.612Z,1019.55
2017-06-02T04:22:10.143Z,1019.54
2017-06-02T04:22:50.716Z,1019.54
2017-06-02T04:23:31.268Z,1019.6
2017-06-02T04:24:11.772Z,1019.56
2017-06-02T04:24:52.278Z,1019.58
2017-06-02T04:25:32.836Z,1019.6
2017-06-02T04:33:42.473Z,1019.59
2017-06-02T04:34:22.896Z,1019.61
2017-06-02T04:35:03.474Z,1019.63
2017-06-02T04:35:44.016Z,1019.61
2017-06-02T04:36:24.550Z,1019.59
2017-06-02T04:37:05.045Z,1019.61
2017-06-02T04:37:45.529Z,1019.62
2017-06-02T04:38:25.999Z,1019.61
2017-06-02T04:39:06.494Z,1019.59
2017-06-02T04:39:46.965Z,1019.63
2017-06-02T04:40:27.469Z,1019.59
2017-06-02T04:41:08.001Z,1019.58
2017-06-02T04:41:48.523Z,1019.59
2017-06-02T04:42:28.981Z,1019.56
2017-06-02T04:43:09.449Z,1019.56
2017-06-02T04:43:49.949Z,1019.57
2017-06-02T04:44:30.434Z,1019.6
2017-06-02T04:45:10.945Z,1019.62
2017-06-02T04:45:51.429Z,1019.57
2017-06-02T04:46:31.954Z,1019.59
2017-06-02T04:47:12.483Z,1019.58
2017-06-02T04:47:52.967Z,1019.59
2017-06-02T04:48:33.484Z,1019.6
2017-06-02T04:49:13.981Z,1019.6
2017-06-02T04:49:54.470Z,1019.55
2017-06-02T04:50:34.961Z,1019.61
2017-06-02T04:51:15.475Z,1019.57
2017-06-02T04:51:55.964Z,1019.55
2017-06-02T04:52:36.488Z,1019.61
2017-06-02T04:53:16.956Z,1019.59
2017-06-02T04:53:57.559Z,1019.58
2017-06-02T04:54:38.016Z,1019.58
2017-06-02T04:55:18.513Z,1019.56
2017-06-02T04:55:58.975Z,1019.61
2017-06-02T04:56:39.451Z,1019.58
2017-06-02T04:57:19.951Z,1019.59
2017-06-02T04:58:00.416Z,1019.57
2017-06-02T04:58:40.889Z,1019.56
2017-06-02T04:59:21.377Z,1019.56
2017-06-02T05:00:02.470Z,1019.57
2017-06-02T05:00:42.942Z,1019.55
2017-06-02T05:01:23.428Z,1019.55
2017-06-02T05:02:03.921Z,1019.58
2017-06-02T05:02:44.580Z,1019.51
2017-06-02T05:03:25.448Z,1019.52
2017-06-02T05:04:06.391Z,1019.52
2017-06-02T05:04:46.842Z,1019.52
2017-06-02T05:05:27.328Z,1019.5
2017-06-02T05:06:07.860Z,1019.52
2017-06-02T05:06:48.388Z,1019.5
2017-06-02T05:07:28.840Z,1019.54
2017-06-02T05:08:09.513Z,1019.5
2017-06-02T05:08:49.996Z,1019.55
2017-06-02T05:09:30.477Z,1019.55
2017-06-02T05:10:10.935Z,1019.51
2017-06-02T05:10:51.441Z,1019.54
2017-06-02T05:11:31.901Z,1019.56
2017-06-02T05:12:12.378Z,1019.55
2017-06-02T05:12:52.941Z,1019.58
2017-06-02T05:13:33.388Z,1019.62
2017-06-02T05:14:13.893Z,1019.57
2017-06-02T05:14:54.377Z,1019.62
2017-06-02T05:15:34.837Z,1019.63
2017-06-02T05:16:15.382Z,1019.62
2017-06-02T05:16:55.836Z,1019.6
2017-06-02T05:17:36.327Z,1019.62
2017-06-02T05:18:16.824Z,1019.61
2017-06-02T05:18:57.313Z,1019.63
2017-06-02T05:19:37.826Z,1019.65
2017-06-02T05:20:18.324Z,1019.61
2017-06-02T05:20:58.783Z,1019.62
2017-06-02T05:21:39.341Z,1019.64
2017-06-02T05:22:19.834Z,1019.7
2017-06-02T05:23:00.310Z,1019.68
2017-06-02T05:23:40.794Z,1019.7
2017-06-02T05:24:21.344Z,1019.68
2017-06-02T05:25:01.862Z,1019.69
2017-06-02T05:25:42.305Z,1019.72
2017-06-02T05:26:22.782Z,1019.7
2017-06-02T05:27:03.280Z,1019.71
2017-06-02T05:27:43.808Z,1019.71
2017-06-02T05:28:24.335Z,1019.74
2017-06-02T05:29:04.841Z,1019.73
2017-06-02T05:29:45.347Z,1019.77
2017-06-02T05:30:25.834Z,1019.72
2017-06-02T05:31:06.351Z,1019.75
2017-06-02T05:31:46.830Z,1019.81
2017-06-02T05:32:27.333Z,1019.76
2017-06-02T05:33:07.856Z,1019.78
2017-06-02T05:33:48.310Z,1019.76
2017-06-02T05:34:28.818Z,1019.79
2017-06-02T05:35:09.273Z,1019.76
2017-06-02T05:35:49.734Z,1019.74
2017-06-02T05:36:30.212Z,1019.74
2017-06-02T05:37:10.660Z,1019.75
2017-06-02T05:37:51.184Z,1019.75
2017-06-02T05:38:31.687Z,1019.73
2017-06-02T05:39:12.178Z,1019.71
2017-06-02T05:39:52.692Z,1019.74
2017-06-02T05:40:33.153Z,1019.75
2017-06-02T05:41:13.599Z,1019.69
2017-06-02T05:41:54.258Z,1019.69
2017-06-02T05:42:34.613Z,1019.66
2017-06-02T05:43:15.103Z,1019.68
2017-06-02T05:43:55.641Z,1019.71
2017-06-02T05:44:36.179Z,1019.74
2017-06-02T05:45:16.700Z,1019.71
2017-06-02T05:45:57.200Z,1019.68
2017-06-02T05:46:37.680Z,1019.73
2017-06-02T05:47:18.182Z,1019.7
2017-06-02T05:47:58.781Z,1019.72
2017-06-02T05:48:39.234Z,1019.72
2017-06-02T05:49:19.717Z,1019.72
2017-06-02T05:50:00.193Z,1019.72
2017-06-02T05:50:40.719Z,1019.74
2017-06-02T05:51:21.252Z,1019.71
2017-06-02T05:52:01.695Z,1019.7
2017-06-02T05:52:42.221Z,1019.7
2017-06-02T05:53:22.689Z,1019.7
2017-06-02T05:54:03.342Z,1019.72
2017-06-02T05:54:43.818Z,1019.67
2017-06-02T05:55:24.386Z,1019.64
2017-06-02T05:56:04.871Z,1019.65
2017-06-02T05:56:45.435Z,1019.69
2017-06-02T05:57:25.875Z,1019.66
2017-06-02T05:58:06.368Z,1019.65
2017-06-02T05:58:46.891Z,1019.63
2017-06-02T05:59:27.334Z,1019.67
2017-06-02T06:00:07.849Z,1019.66
2017-06-02T06:00:48.368Z,1019.65
2017-06-02T06:01:28.848Z,1019.65
2017-06-02T06:02:09.365Z,1019.62
2017-06-02T06:02:49.799Z,1019.65
2017-06-02T06:03:30.289Z,1019.67
2017-06-02T06:04:10.877Z,1019.66
2017-06-02T06:04:51.363Z,1019.64
2017-06-02T06:05:31.879Z,1019.67
2017-06-02T06:06:12.373Z,1019.64
2017-06-02T06:06:52.976Z,1019.64
2017-06-02T06:07:33.433Z,1019.67
2017-06-02T06:08:13.932Z,1019.66
2017-06-02T06:08:54.428Z,1019.67
2017-06-02T06:09:34.950Z,1019.66
2017-06-02T06:10:15.511Z,1019.69
2017-06-02T06:10:55.981Z,1019.67
2017-06-02T06:11:36.507Z,1019.68
2017-06-02T06:12:16.926Z,1019.71
2017-06-02T06:12:57.468Z,1019.71
2017-06-02T06:13:37.965Z,1019.72
2017-06-02T06:14:18.466Z,1019.72
2017-06-02T06:14:58.957Z,1019.72
2017-06-02T06:15:39.435Z,1019.72
2017-06-02T06:16:19.858Z,1019.71
2017-06-02T06:17:00.376Z,1019.73
2017-06-02T06:17:40.817Z,1019.76
2017-06-02T06:18:21.317Z,1019.73
2017-06-02T06:19:01.790Z,1019.73
2017-06-02T06:19:42.256Z,1019.75
2017-06-02T06:20:22.812Z,1019.74
2017-06-02T06:21:03.282Z,1019.7
2017-06-02T06:21:43.814Z,1019.68
2017-06-02T06:22:24.282Z,1019.7
2017-06-02T06:23:04.755Z,1019.67
2017-06-02T06:23:45.233Z,1019.72
2017-06-02T06:24:25.705Z,1019.68
2017-06-02T06:25:06.319Z,1019.69
2017-06-02T06:25:46.796Z,1019.71
2017-06-02T06:26:27.311Z,1019.71
2017-06-02T06:27:07.839Z,1019.73
2017-06-02T06:27:48.334Z,1019.7
2017-06-02T06:28:28.822Z,1019.7
2017-06-02T06:29:09.295Z,1019.71
2017-06-02T06:29:49.788Z,1019.69
2017-06-02T06:30:30.267Z,1019.7
2017-06-02T06:31:10.789Z,1019.7
2017-06-02T06:31:51.365Z,1019.71
2017-06-02T06:32:31.914Z,1019.74
2017-06-02T06:33:12.447Z,1019.73
2017-06-02T06:33:52.915Z,1019.69
2017-06-02T06:34:33.433Z,1019.71
2017-06-02T06:35:13.884Z,1019.74
2017-06-02T06:35:54.410Z,1019.7
2017-06-02T06:36:34.912Z,1019.72
2017-06-02T06:37:15.443Z,1019.72
2017-06-02T06:37:56.010Z,1019.74
2017-06-02T06:38:36.503Z,1019.75
2017-06-02T06:39:17.043Z,1019.74
2017-06-02T06:39:57.558Z,1019.8
2017-06-02T06:40:38.125Z,1019.77
2017-06-02T06:41:18.637Z,1019.77
2017-06-02T06:41:59.175Z,1019.78
2017-06-02T06:42:39.683Z,1019.79
2017-06-02T06:43:20.154Z,1019.77
2017-06-02T06:44:00.636Z,1019.79
2017-06-02T06:44:41.116Z,1019.75
2017-06-02T06:45:21.797Z,1019.75
2017-06-02T06:46:02.236Z,1019.79
2017-06-02T06:46:42.705Z,1019.8
2017-06-02T06:47:23.164Z,1019.78
2017-06-02T06:48:03.693Z,1019.81
2017-06-02T06:48:44.515Z,1019.81
2017-06-02T06:49:25.173Z,1019.81
2017-06-02T06:50:05.622Z,1019.77
2017-06-02T06:50:46.111Z,1019.78
2017-06-02T06:51:26.610Z,1019.8
2017-06-02T06:52:07.230Z,1019.79
2017-06-02T06:52:47.698Z,1019.8
2017-06-02T06:53:28.219Z,1019.81
2017-06-02T06:54:08.694Z,1019.81
2017-06-02T06:54:49.217Z,1019.76
2017-06-02T06:55:29.744Z,1019.78
2017-06-02T06:56:10.254Z,1019.78
2017-06-02T06:56:51.475Z,1019.8
2017-06-02T06:57:33.216Z,1019.81
2017-06-02T06:58:13.674Z,1019.8
2017-06-02T06:58:54.157Z,1019.82
2017-06-02T06:59:34.651Z,1019.78
2017-06-02T07:00:15.134Z,1019.77
2017-06-02T07:00:55.621Z,1019.76
2017-06-02T07:01:36.100Z,1019.79
2017-06-02T07:02:16.610Z,1019.77
2017-06-02T07:02:57.128Z,1019.76
2017-06-02T07:03:37.591Z,1019.76
2017-06-02T07:04:18.089Z,1019.76
2017-06-02T07:04:58.572Z,1019.79
2017-06-02T07:05:39.049Z,1019.79
2017-06-02T07:06:19.539Z,1019.77
2017-06-02T07:07:00.019Z,1019.75
2017-06-02T07:07:40.532Z,1019.75
2017-06-02T07:08:21.019Z,1019.77
2017-06-02T07:09:01.499Z,1019.75
2017-06-02T07:09:42.822Z,1019.75
2017-06-02T07:10:23.341Z,1019.75
2017-06-02T07:11:04.354Z,1019.76
2017-06-02T07:11:45.876Z,1019.73
2017-06-02T07:12:27.180Z,1019.76
2017-06-02T07:13:09.597Z,1019.78
2017-06-02T07:13:50.472Z,1019.78
2017-06-02T07:14:30.930Z,1019.79
2017-06-02T07:15:11.511Z,1019.78
2017-06-02T07:15:52.019Z,1019.78
2017-06-02T07:16:32.559Z,1019.77
2017-06-02T07:17:13.111Z,1019.81
2017-06-02T07:17:53.564Z,1019.76
2017-06-02T07:18:34.074Z,1019.79
2017-06-02T07:19:16.716Z,1019.76
2017-06-02T07:19:57.891Z,1019.77
2017-06-02T07:20:38.356Z,1019.74
2017-06-02T07:21:18.857Z,1019.73
2017-06-02T07:23:48.841Z,1019.8
2017-06-02T07:26:02.448Z,1019.78
2017-06-02T07:26:43.307Z,1019.76
2017-06-02T07:27:23.829Z,1019.73
2017-06-02T07:28:04.325Z,1019.78
2017-06-02T07:28:44.940Z,1019.77
2017-06-02T07:29:25.457Z,1019.74
2017-06-02T07:30:05.995Z,1019.74
2017-06-02T07:30:46.779Z,1019.74
2017-06-02T07:31:27.356Z,1019.72
2017-06-02T07:32:07.915Z,1019.75
2017-06-02T07:32:48.449Z,1019.78
2017-06-02T07:33:29.454Z,1019.75
2017-06-02T07:34:12.462Z,1019.74
2017-06-02T07:34:53.505Z,1019.75
2017-06-02T07:35:36.327Z,1019.78
2017-06-02T07:36:16.794Z,1019.75
2017-06-02T07:36:57.321Z,1019.73
2017-06-02T07:37:37.817Z,1019.77
2017-06-02T07:38:18.299Z,1019.7
2017-06-02T07:38:58.771Z,1019.74
2017-06-02T07:39:39.259Z,1019.73
2017-06-02T07:40:19.781Z,1019.68
2017-06-02T07:41:00.260Z,1019.74
2017-06-02T07:41:40.743Z,1019.73
2017-06-02T07:42:21.242Z,1019.77
2017-06-02T07:43:01.707Z,1019.73
2017-06-02T07:43:42.224Z,1019.75
2017-06-02T07:44:22.723Z,1019.74
2017-06-02T07:45:03.188Z,1019.72
2017-06-02T07:45:43.738Z,1019.76
2017-06-02T07:46:24.215Z,1019.72
2017-06-02T07:47:04.682Z,1019.77
2017-06-02T07:47:45.197Z,1019.73
2017-06-02T07:48:25.675Z,1019.66
2017-06-02T07:49:06.165Z,1019.7
2017-06-02T07:49:46.614Z,1019.67
2017-06-02T07:50:27.089Z,1019.64
2017-06-02T07:51:07.601Z,1019.64
2017-06-02T07:51:48.081Z,1019.64
2017-06-02T07:52:28.590Z,1019.64
2017-06-02T07:53:09.101Z,1019.6
2017-06-02T07:53:49.586Z,1019.6
2017-06-02T07:54:30.052Z,1019.59
2017-06-02T07:55:10.623Z,1019.6
2017-06-02T07:55:51.110Z,1019.61
2017-06-02T07:56:31.614Z,1019.6
2017-06-02T07:57:12.089Z,1019.62
2017-06-02T07:57:52.610Z,1019.66
2017-06-02T07:58:33.103Z,1019.68
2017-06-02T07:59:13.620Z,1019.66
2017-06-02T07:59:54.073Z,1019.66
2017-06-02T08:00:34.756Z,1019.71
2017-06-02T08:01:15.268Z,1019.67
2017-06-02T08:01:55.778Z,1019.72
2017-06-02T08:02:36.254Z,1019.72
2017-06-02T08:03:16.760Z,1019.74
2017-06-02T08:03:57.330Z,1019.74
2017-06-02T08:04:37.797Z,1019.71
2017-06-02T08:05:18.425Z,1019.72
2017-06-02T08:05:58.868Z,1019.72
2017-06-02T08:06:39.422Z,1019.7
2017-06-02T08:07:19.980Z,1019.7
2017-06-02T08:08:00.528Z,1019.72
2017-06-02T08:08:41.064Z,1019.67
2017-06-02T08:09:21.505Z,1019.69
2017-06-02T08:10:02.009Z,1019.68
2017-06-02T08:10:42.540Z,1019.72
2017-06-02T08:11:22.998Z,1019.7
2017-06-02T08:12:03.469Z,1019.72
2017-06-02T08:12:43.948Z,1019.72
2017-06-02T08:13:24.489Z,1019.7
2017-06-02T08:14:04.961Z,1019.68
2017-06-02T08:14:45.560Z,1019.74
2017-06-02T08:15:26.020Z,1019.71
2017-06-02T08:16:06.510Z,1019.71
2017-06-02T08:16:47.023Z,1019.71
2017-06-02T08:17:28.093Z,1019.71
2017-06-02T08:18:08.653Z,1019.69
2017-06-02T08:18:49.097Z,1019.69
2017-06-02T08:19:29.606Z,1019.75
2017-06-02T08:20:10.086Z,1019.73
2017-06-02T08:20:50.569Z,1019.75
2017-06-02T08:21:31.058Z,1019.71
2017-06-02T08:22:11.555Z,1019.74
2017-06-02T08:22:52.024Z,1019.71
2017-06-02T08:23:32.533Z,1019.71
2017-06-02T08:24:13.097Z,1019.68
2017-06-02T08:24:53.702Z,1019.71
2017-06-02T08:25:34.221Z,1019.68
2017-06-02T08:26:14.726Z,1019.69
2017-06-02T08:26:55.246Z,1019.69